Time;durP1;ratioP1;P1;durP2;ratioP2;P2;SDS_P1;SDS_P2;PMS_P1;PMS_P2;Temp;Humidity;BMP_temperature;BMP_pressure;BME280_temperature;BME280_humidity;BME280_pressure;Samples;Min_cycle;Max_cycle;Signal;HPM_P1;HPM_P2
2022/09/20 00:02:20;;;;;;;5.43;3.60;;;;;;;9.38;100.00;98650.81;5095612;28;20260;-71
2022/09/20 00:04:48;;;;;;;5.97;3.87;;;;;;;9.37;100.00;98635.91;5095647;28;20277;-71
2022/09/20 00:07:14;;;;;;;5.50;3.60;;;;;;;9.41;100.00;98632.16;5095641;28;20568;-71
2022/09/20 00:09:41;;;;;;;4.83;3.40;;;;;;;9.41;100.00;98637.44;5094348;28;20911;-71
2022/09/20 00:12:09;;;;;;;4.53;3.73;;;;;;;9.28;100.00;98634.66;5095389;28;20633;-70
2022/09/20 00:14:36;;;;;;;6.63;4.40;;;;;;;9.15;100.00;98632.78;5095446;28;20253;-71
2022/09/20 00:17:02;;;;;;;4.43;3.40;;;;;;;9.01;100.00;98637.97;5095615;28;20259;-71
2022/09/20 00:19:29;;;;;;;4.67;3.70;;;;;;;8.88;100.00;98632.50;5094302;28;20264;-71
2022/09/20 00:21:56;;;;;;;5.20;3.93;;;;;;;8.81;100.00;98635.56;5093785;28;20266;-70
2022/09/20 00:24:22;;;;;;;5.17;3.23;;;;;;;8.74;100.00;98634.19;5090977;28;20321;-70
2022/09/20 00:26:50;;;;;;;5.43;3.90;;;;;;;8.63;100.00;98632.13;5095485;28;20229;-70
2022/09/20 00:29:18;;;;;;;7.47;4.50;;;;;;;8.65;100.00;98640.81;5094230;28;20230;-71
2022/09/20 00:31:46;;;;;;;4.67;3.60;;;;;;;8.71;100.00;98626.44;5095470;28;20277;-71
2022/09/20 00:36:56;;;;;;;6.27;3.40;;;;;;;8.97;100.00;98631.16;5094466;28;20221;-70
2022/09/20 00:39:23;;;;;;;5.53;3.57;;;;;;;9.08;100.00;98634.06;5067229;28;20231;-70
2022/09/20 00:41:50;;;;;;;5.63;3.80;;;;;;;9.14;100.00;98628.44;5099184;28;20259;-70
2022/09/20 00:44:42;;;;;;;4.03;3.17;;;;;;;9.20;100.00;98623.69;5099193;28;20652;-69
2022/09/20 00:47:14;;;;;;;4.20;3.17;;;;;;;9.28;100.00;98636.41;5095841;28;20223;-71
2022/09/20 00:49:41;;;;;;;4.67;3.07;;;;;;;9.34;100.00;98636.06;5099178;28;20289;-70
2022/09/20 00:52:08;;;;;;;4.87;3.43;;;;;;;9.35;100.00;98636.00;5098954;28;20247;-70
2022/09/20 00:54:36;;;;;;;5.63;3.37;;;;;;;9.40;100.00;98627.81;5098315;28;20277;-71
2022/09/20 00:57:03;;;;;;;3.63;3.27;;;;;;;9.43;100.00;98635.56;5086856;28;20222;-71
2022/09/20 00:59:33;;;;;;;5.33;3.10;;;;;;;9.45;100.00;98638.97;5098721;28;20630;-71
2022/09/20 01:02:06;;;;;;;3.13;2.83;;;;;;;9.47;100.00;98631.81;5098777;28;20268;-73
2022/09/20 01:04:35;;;;;;;4.13;2.93;;;;;;;9.51;100.00;98631.56;5097647;28;20255;-72
2022/09/20 01:07:05;;;;;;;6.87;3.20;;;;;;;9.54;100.00;98634.00;5098657;28;20258;-72
2022/09/20 01:09:32;;;;;;;7.47;3.50;;;;;;;9.56;100.00;98632.16;5098747;28;20336;-71
2022/09/20 01:12:03;;;;;;;5.33;3.17;;;;;;;9.58;100.00;98634.69;5098707;28;20260;-71
2022/09/20 01:14:30;;;;;;;4.47;2.80;;;;;;;9.60;100.00;98627.56;5095536;28;20281;-72
2022/09/20 01:17:03;;;;;;;3.37;2.80;;;;;;;9.63;100.00;98635.28;5098649;28;20263;-72
2022/09/20 01:19:37;;;;;;;5.57;2.57;;;;;;;9.63;100.00;98633.50;5098635;28;20313;-71
2022/09/20 01:22:21;;;;;;;4.30;2.80;;;;;;;9.62;100.00;98634.41;5098153;28;20273;-71
2022/09/20 01:24:54;;;;;;;4.47;2.77;;;;;;;9.62;100.00;98637.06;5083119;28;20218;-71
2022/09/20 01:27:33;;;;;;;3.20;2.57;;;;;;;9.63;100.00;98638.78;5098281;28;20252;-71
2022/09/20 01:30:07;;;;;;;4.47;2.90;;;;;;;9.60;100.00;98633.66;5097247;28;20269;-72
2022/09/20 01:32:44;;;;;;;2.57;2.33;;;;;;;9.58;100.00;98630.28;5069062;28;20225;-71
2022/09/20 01:35:13;;;;;;;3.50;2.47;;;;;;;9.60;100.00;98632.84;5097940;28;20335;-70
2022/09/20 01:37:54;;;;;;;6.57;2.90;;;;;;;9.58;100.00;98634.69;5098098;28;20229;-70
2022/09/20 01:40:30;;;;;;;5.40;2.83;;;;;;;9.58;100.00;98629.41;5066267;28;20222;-70
2022/09/20 01:43:05;;;;;;;4.50;2.73;;;;;;;9.59;100.00;98634.59;5098126;28;20638;-70
2022/09/20 01:45:32;;;;;;;4.00;2.93;;;;;;;9.58;100.00;98639.97;5098048;28;20317;-70
2022/09/20 01:48:09;;;;;;;4.63;2.50;;;;;;;9.55;100.00;98634.88;5096734;28;20226;-70
2022/09/20 01:50:52;;;;;;;3.00;2.20;;;;;;;9.52;100.00;98627.97;5097824;28;20222;-70
2022/09/20 01:53:39;;;;;;;2.97;2.60;;;;;;;9.54;100.00;98623.47;5097908;28;20288;-70
2022/09/20 01:56:42;;;;;;;4.93;2.70;;;;;;;9.51;100.00;98628.06;5067738;28;20226;-70
2022/09/20 01:59:34;;;;;;;5.73;3.00;;;;;;;9.50;100.00;98632.50;5097726;28;20708;-70
2022/09/20 02:02:13;;;;;;;3.63;3.10;;;;;;;9.50;100.00;98623.72;5094425;28;20222;-70
2022/09/20 02:05:08;;;;;;;4.37;2.73;;;;;;;9.56;100.00;98626.88;5096559;28;20226;-70
2022/09/20 02:07:47;;;;;;;4.00;3.10;;;;;;;9.57;100.00;98628.59;5096579;28;20225;-70
2022/09/20 02:10:35;;;;;;;3.00;2.50;;;;;;;9.61;100.00;98629.25;5095873;28;20254;-70
2022/09/20 02:13:06;;;;;;;3.97;2.80;;;;;;;9.64;100.00;98634.34;5092251;28;20263;-70
2022/09/20 02:16:01;;;;;;;3.30;2.83;;;;;;;9.63;100.00;98632.63;5096183;28;20262;-70
2022/09/20 02:18:42;;;;;;;3.80;3.03;;;;;;;9.70;100.00;98633.97;5097377;28;20233;-70
2022/09/20 02:21:16;;;;;;;3.23;2.50;;;;;;;9.72;100.00;98626.84;5096473;28;20269;-70
2022/09/20 02:23:51;;;;;;;7.50;3.03;;;;;;;9.70;100.00;98623.44;5072221;28;20300;-71
2022/09/20 02:26:32;;;;;;;4.03;2.70;;;;;;;9.62;100.00;98626.50;5097215;28;20275;-70
2022/09/20 02:29:07;;;;;;;5.20;3.17;;;;;;;9.56;100.00;98615.47;5096607;28;20225;-70
2022/09/20 02:31:53;;;;;;;7.93;3.20;;;;;;;9.56;100.00;98612.81;5066229;28;20319;-70
2022/09/20 02:34:39;;;;;;;6.07;2.67;;;;;;;9.57;100.00;98628.59;5097063;28;20321;-70
2022/09/20 02:37:24;;;;;;;3.83;2.90;;;;;;;9.57;100.00;98627.72;5092474;28;20262;-70
2022/09/20 02:40:07;;;;;;;3.90;2.70;;;;;;;9.56;100.00;98623.38;5096965;28;20227;-70
2022/09/20 02:42:41;;;;;;;4.03;2.57;;;;;;;9.55;100.00;98622.53;5096861;28;20224;-70
2022/09/20 02:45:12;;;;;;;3.00;2.27;;;;;;;9.60;100.00;98617.00;5094902;28;20278;-70
2022/09/20 02:47:43;;;;;;;2.27;2.07;;;;;;;9.66;100.00;98616.66;5096802;28;20230;-70
2022/09/20 02:50:28;;;;;;;3.83;2.30;;;;;;;9.67;100.00;98623.63;5096648;28;20307;-70
2022/09/20 02:53:11;;;;;;;4.73;2.10;;;;;;;9.68;100.00;98627.97;5095746;28;20252;-70
2022/09/20 02:55:43;;;;;;;4.07;1.90;;;;;;;9.64;100.00;98618.50;5096632;28;20288;-70
2022/09/20 02:58:24;;;;;;;3.57;2.17;;;;;;;9.61;100.00;98630.09;5094924;28;20273;-70
2022/09/20 03:00:54;;;;;;;5.07;2.20;;;;;;;9.58;100.00;98629.41;5094995;28;20636;-70
2022/09/20 03:03:36;;;;;;;3.77;2.30;;;;;;;9.38;100.00;98627.94;5096378;28;20692;-70
2022/09/20 03:06:08;;;;;;;2.93;2.10;;;;;;;9.25;100.00;98631.34;5096457;28;20263;-70
2022/09/20 03:08:44;;;;;;;3.90;1.97;;;;;;;9.07;100.00;98635.81;5095264;28;20241;-70
2022/09/20 03:11:19;;;;;;;7.20;2.30;;;;;;;9.02;100.00;98637.88;5096432;28;20585;-70
2022/09/20 03:14:06;;;;;;;3.90;2.47;;;;;;;8.93;100.00;98634.91;5096381;28;20244;-70
2022/09/20 03:16:46;;;;;;;3.50;2.10;;;;;;;8.93;100.00;98638.38;5095253;28;20259;-70
2022/09/20 03:19:24;;;;;;;4.13;2.20;;;;;;;8.97;100.00;98639.06;5096273;28;20577;-70
2022/09/20 03:22:05;;;;;;;3.83;2.30;;;;;;;9.06;100.00;98638.56;5096178;28;20285;-71
2022/09/20 03:24:44;;;;;;;3.63;2.60;;;;;;;9.19;100.00;98637.78;5082271;28;20490;-71
2022/09/20 03:27:19;;;;;;;2.67;2.00;;;;;;;9.30;100.00;98642.47;5088297;28;20259;-70
2022/09/20 03:30:01;;;;;;;3.20;2.10;;;;;;;9.39;100.00;98637.53;5096226;28;20331;-70
2022/09/20 03:32:44;;;;;;;3.20;2.30;;;;;;;9.47;100.00;98642.34;5066207;28;20266;-70
2022/09/20 03:35:28;;;;;;;3.60;2.13;;;;;;;9.57;100.00;98643.56;5095955;28;20290;-70
2022/09/20 03:38:09;;;;;;;4.50;2.07;;;;;;;9.62;100.00;98647.63;5094794;28;20257;-70
2022/09/20 03:40:59;;;;;;;3.43;2.27;;;;;;;9.66;100.00;98648.31;5096020;28;20273;-70
2022/09/20 03:43:42;;;;;;;2.77;2.27;;;;;;;9.67;100.00;98644.72;5095886;28;20355;-70
2022/09/20 03:46:18;;;;;;;2.63;2.20;;;;;;;9.72;100.00;98643.53;5094885;28;20228;-70
2022/09/20 03:49:12;;;;;;;2.73;2.00;;;;;;;9.73;100.00;98647.03;5094343;28;20530;-70
2022/09/20 03:51:48;;;;;;;3.97;2.30;;;;;;;9.75;100.00;98655.69;5094730;28;20531;-70
2022/09/20 03:54:34;;;;;;;3.13;2.37;;;;;;;9.75;100.00;98651.28;5068393;28;20392;-70
2022/09/20 03:57:23;;;;;;;2.33;2.10;;;;;;;9.77;100.00;98656.44;5095687;28;20284;-70
2022/09/20 04:00:15;;;;;;;3.63;2.20;;;;;;;9.76;100.00;98649.47;5093561;28;20229;-70
2022/09/20 04:03:03;;;;;;;2.93;2.17;;;;;;;9.78;100.00;98653.72;5095768;28;20630;-70
2022/09/20 04:05:45;;;;;;;2.90;2.27;;;;;;;9.82;100.00;98664.94;5094535;28;20271;-70
2022/09/20 04:08:25;;;;;;;3.30;2.30;;;;;;;9.81;100.00;98657.97;5095703;28;20227;-70
2022/09/20 04:11:04;;;;;;;2.43;1.83;;;;;;;9.85;100.00;98662.16;5095797;28;20226;-71
2022/09/20 04:13:36;;;;;;;4.67;2.10;;;;;;;9.84;100.00;98657.81;5095360;28;20230;-70
2022/09/20 04:16:27;;;;;;;4.73;2.53;;;;;;;9.86;100.00;98661.22;5097969;28;20585;-71
2022/09/20 04:18:58;;;;;;;4.57;2.40;;;;;;;9.85;100.00;98659.50;5099625;28;20288;-70
2022/09/20 04:21:32;;;;;;;3.10;2.30;;;;;;;9.77;100.00;98664.34;5098539;28;20302;-70
2022/09/20 04:24:05;;;;;;;4.67;2.30;;;;;;;9.62;100.00;98659.97;5096121;28;20227;-70
2022/09/20 04:26:39;;;;;;;4.60;2.47;;;;;;;9.45;100.00;98660.06;5099559;28;20268;-70
2022/09/20 04:29:27;;;;;;;4.77;2.43;;;;;;;9.36;100.00;98658.78;5098393;28;20286;-70
2022/09/20 04:32:03;;;;;;;6.07;2.40;;;;;;;9.24;100.00;98658.66;5099425;28;20275;-71
2022/09/20 04:37:24;;;;;;;3.70;2.37;;;;;;;9.23;100.00;98660.41;5099325;28;20210;-70
2022/09/20 04:39:59;;;;;;;4.37;2.80;;;;;;;9.20;100.00;98657.09;5099170;28;20640;-71
2022/09/20 04:43:05;;;;;;;4.30;2.40;;;;;;;9.25;100.00;98663.81;5086420;28;20229;-70
2022/09/20 04:45:57;;;;;;;4.00;2.30;;;;;;;9.22;100.00;98668.41;5074023;28;20259;-70
2022/09/20 04:49:00;;;;;;;5.73;2.63;;;;;;;9.21;100.00;98662.31;5099066;28;20266;-70
2022/09/20 04:51:52;;;;;;;2.37;2.17;;;;;;;9.18;100.00;98672.19;5098711;28;20257;-70
2022/09/20 04:54:52;;;;;;;5.77;2.50;;;;;;;9.06;100.00;98675.47;5098834;28;20696;-71
2022/09/20 04:57:55;;;;;;;6.63;2.47;;;;;;;8.96;100.00;98679.53;5095803;28;20281;-71
2022/09/20 05:00:24;;;;;;;4.20;2.50;;;;;;;8.94;100.00;98682.25;5098763;28;20279;-70
2022/09/20 05:03:28;;;;;;;4.47;2.67;;;;;;;8.88;100.00;98684.38;5098162;28;20225;-70
2022/09/20 05:06:16;;;;;;;5.07;3.03;;;;;;;8.86;100.00;98692.38;5098585;28;20220;-70
2022/09/20 05:09:22;;;;;;;3.20;2.60;;;;;;;8.78;100.00;98689.31;5095499;28;20272;-70
2022/09/20 05:12:12;;;;;;;6.43;2.80;;;;;;;8.70;100.00;98701.19;5098676;28;20272;-69
2022/09/20 05:15:06;;;;;;;4.67;3.03;;;;;;;8.65;100.00;98701.41;5097906;28;20247;-70
2022/09/20 05:17:52;;;;;;;4.23;2.97;;;;;;;8.60;100.00;98699.94;5098577;28;20532;-70
2022/09/20 05:20:46;;;;;;;4.47;2.60;;;;;;;8.53;100.00;98701.19;5097269;28;20232;-70
2022/09/20 05:23:30;;;;;;;5.63;2.87;;;;;;;8.49;100.00;98699.66;5088475;28;20255;-69
2022/09/20 05:26:08;;;;;;;6.87;2.83;;;;;;;8.39;100.00;98708.97;5094007;28;20261;-70
2022/09/20 05:28:48;;;;;;;6.93;3.77;;;;;;;8.40;100.00;98702.78;5069639;28;20637;-70
2022/09/20 05:31:24;;;;;;;6.00;3.13;;;;;;;8.40;100.00;98700.13;5098006;28;20228;-70
2022/09/20 05:33:57;;;;;;;4.63;2.90;;;;;;;8.37;100.00;98708.19;5095762;28;20229;-72
2022/09/20 05:36:37;;;;;;;5.17;3.20;;;;;;;8.34;100.00;98703.09;5068579;28;20238;-71
2022/09/20 05:39:13;;;;;;;9.67;3.10;;;;;;;8.37;100.00;98710.81;5097784;28;20690;-71
2022/09/20 05:41:46;;;;;;;6.00;2.90;;;;;;;8.37;100.00;98718.72;5097637;28;20226;-71
2022/09/20 05:44:29;;;;;;;6.53;3.07;;;;;;;8.39;100.00;98714.25;5067570;28;20264;-71
2022/09/20 05:47:11;;;;;;;9.73;3.00;;;;;;;8.44;100.00;98720.97;5097826;28;20234;-70
2022/09/20 05:49:50;;;;;;;3.57;2.70;;;;;;;8.43;100.00;98721.03;5096602;28;20260;-70
2022/09/20 05:52:38;;;;;;;5.10;3.70;;;;;;;8.37;100.00;98708.19;5070604;28;20250;-70
2022/09/20 05:55:18;;;;;;;5.67;3.33;;;;;;;8.41;100.00;98715.88;5096422;28;20290;-70
2022/09/20 05:58:00;;;;;;;6.33;3.40;;;;;;;8.42;100.00;98727.25;5095728;28;20224;-70
2022/09/20 06:00:32;;;;;;;7.20;3.10;;;;;;;8.39;100.00;98725.59;5096185;28;20257;-70
2022/09/20 06:03:07;;;;;;;6.50;3.30;;;;;;;8.37;100.00;98729.25;5097777;28;20318;-69
2022/09/20 06:05:46;;;;;;;5.13;2.90;;;;;;;8.33;100.00;98735.63;5096453;28;20682;-70
2022/09/20 06:08:33;;;;;;;7.63;2.90;;;;;;;8.36;100.00;98743.34;5097558;28;20672;-70
2022/09/20 06:11:10;;;;;;;5.23;3.03;;;;;;;8.45;100.00;98735.00;5097615;28;20232;-70
2022/09/20 06:13:50;;;;;;;5.33;3.00;;;;;;;8.54;100.00;98734.50;5096038;28;20307;-70
2022/09/20 06:16:25;;;;;;;4.63;3.10;;;;;;;8.58;100.00;98739.53;5097333;28;20248;-70
2022/09/20 06:19:04;;;;;;;6.40;3.10;;;;;;;8.61;100.00;98739.38;5097380;28;20314;-70
2022/09/20 06:21:42;;;;;;;4.13;2.93;;;;;;;8.60;100.00;98736.81;5096476;28;20229;-70
2022/09/20 06:24:21;;;;;;;6.50;2.90;;;;;;;8.59;100.00;98736.00;5094245;28;20246;-70
2022/09/20 06:26:52;;;;;;;5.63;3.20;;;;;;;8.67;100.00;98727.66;5095606;28;20250;-70
2022/09/20 06:29:29;;;;;;;3.83;2.77;;;;;;;8.76;100.00;98740.38;5095167;28;20293;-70
2022/09/20 06:31:55;;;;;;;8.83;3.23;;;;;;;8.76;100.00;98738.59;5097155;28;20231;-70
2022/09/20 06:34:23;;;;;;;5.60;3.67;;;;;;;8.82;100.00;98740.91;5097016;28;20416;-70
2022/09/20 06:42:33;;;;;;;11.97;3.73;;;;;;;9.17;100.00;98745.16;5095534;28;20735;-70
2022/09/20 06:44:59;;;;;;;5.27;3.30;;;;;;;9.30;100.00;98748.00;5094438;28;20291;-70
2022/09/20 06:47:27;;;;;;;5.63;2.80;;;;;;;9.36;100.00;98752.94;5095542;28;20318;-71
2022/09/20 06:49:55;;;;;;;6.33;3.33;;;;;;;9.48;100.00;98754.91;5095483;28;20222;-70
2022/09/20 06:52:22;;;;;;;5.23;3.20;;;;;;;9.65;100.00;98757.44;5093607;28;20272;-70
2022/09/20 06:54:53;;;;;;;4.07;2.87;;;;;;;9.67;100.00;98760.88;5094142;28;20249;-71
2022/09/20 06:57:24;;;;;;;5.20;2.60;;;;;;;9.73;100.00;98761.34;5095301;28;20305;-70
2022/09/20 06:59:51;;;;;;;5.67;3.53;;;;;;;9.87;100.00;98760.59;5095305;28;20269;-71
2022/09/20 07:02:17;;;;;;;5.57;3.20;;;;;;;10.02;100.00;98757.06;5095213;28;20302;-71
2022/09/20 07:04:44;;;;;;;7.53;2.87;;;;;;;10.14;100.00;98761.69;5094507;28;20602;-70
2022/09/20 07:07:17;;;;;;;5.77;2.70;;;;;;;10.21;100.00;98763.88;5095221;28;20261;-70
2022/09/20 07:09:44;;;;;;;5.43;2.73;;;;;;;10.33;100.00;98763.19;5095261;28;20751;-70
2022/09/20 07:12:11;;;;;;;5.50;2.70;;;;;;;10.39;100.00;98762.00;5091338;28;20708;-72
2022/09/20 07:14:38;;;;;;;6.83;2.80;;;;;;;10.44;100.00;98770.47;5091469;28;20336;-70
2022/09/20 07:17:05;;;;;;;5.07;3.23;;;;;;;10.45;100.00;98775.69;5093826;28;20663;-70
2022/09/20 07:19:32;;;;;;;4.83;2.90;;;;;;;10.49;100.00;98773.69;5093049;28;20229;-71
2022/09/20 07:21:59;;;;;;;6.00;2.77;;;;;;;10.57;100.00;98772.31;5093812;28;20279;-71
2022/09/20 07:24:31;;;;;;;5.73;2.77;;;;;;;10.66;100.00;98774.44;5083133;28;20346;-71
2022/09/20 07:26:59;;;;;;;9.47;3.57;;;;;;;10.92;100.00;98778.13;5094702;28;20226;-71
2022/09/20 07:29:27;;;;;;;5.87;2.80;;;;;;;11.20;100.00;98765.78;5094950;28;20574;-71
2022/09/20 07:31:54;;;;;;;5.20;2.97;;;;;;;11.42;100.00;98767.94;5093964;28;20523;-71
2022/09/20 07:34:20;;;;;;;6.03;3.10;;;;;;;11.44;100.00;98771.38;5064627;28;20230;-71
2022/09/20 07:36:48;;;;;;;5.57;3.20;;;;;;;11.40;100.00;98769.84;5094806;28;20281;-71
2022/09/20 07:39:15;;;;;;;5.03;2.83;;;;;;;11.41;100.00;98771.53;5094608;28;20635;-71
2022/09/20 07:41:45;;;;;;;5.07;2.50;;;;;;;11.36;100.00;98774.47;5094060;28;20700;-71
2022/09/20 07:44:20;;;;;;;5.10;2.77;;;;;;;11.42;100.00;98767.94;5062560;28;20222;-71
2022/09/20 07:46:48;;;;;;;8.60;3.20;;;;;;;11.47;100.00;98768.50;5094718;28;20225;-71
2022/09/20 07:49:14;;;;;;;9.83;3.23;;;;;;;11.43;100.00;98774.97;5094331;28;20272;-71
2022/09/20 07:51:41;;;;;;;5.43;2.90;;;;;;;11.42;100.00;98778.53;5093211;28;20273;-71
2022/09/20 07:54:08;;;;;;;7.70;2.80;;;;;;;11.51;100.00;98783.25;5094604;28;20278;-71
2022/09/20 07:56:35;;;;;;;5.87;2.97;;;;;;;11.42;100.00;98778.53;5094500;28;20251;-71
2022/09/20 07:59:03;;;;;;;7.70;2.60;;;;;;;11.57;97.40;98780.22;5094561;28;20221;-71
2022/09/20 08:01:29;;;;;;;4.50;2.50;;;;;;;11.53;97.66;98784.00;5093251;28;20614;-71
2022/09/20 08:03:56;;;;;;;4.73;2.27;;;;;;;11.47;94.56;98781.75;5094297;28;20265;-71
2022/09/20 08:06:24;;;;;;;4.27;1.87;;;;;;;11.61;94.19;98787.91;5094519;28;20528;-70
2022/09/20 08:08:51;;;;;;;5.27;2.10;;;;;;;11.68;92.85;98793.69;5094363;28;20570;-71
2022/09/20 08:11:20;;;;;;;3.90;2.00;;;;;;;11.78;91.13;98793.00;5091488;28;20216;-71
2022/09/20 08:13:48;;;;;;;4.23;2.00;;;;;;;12.01;88.02;98802.13;5094518;28;20219;-66
2022/09/20 08:16:17;;;;;;;5.13;2.10;;;;;;;12.13;88.00;98796.91;5094302;28;20285;-66
2022/09/20 08:18:46;;;;;;;5.77;2.53;;;;;;;12.35;86.12;98805.13;5094277;28;20281;-66
2022/09/20 08:21:14;;;;;;;5.23;2.10;;;;;;;12.72;87.30;98803.53;5092620;28;20252;-66
2022/09/20 08:23:42;;;;;;;3.37;2.07;;;;;;;12.93;82.60;98804.72;5091511;28;20278;-65
2022/09/20 08:26:11;;;;;;;3.57;1.90;;;;;;;12.97;85.73;98806.28;5094145;28;20330;-70
2022/09/20 08:28:38;;;;;;;4.30;1.90;;;;;;;12.95;82.12;98808.16;5094172;28;20627;-70
2022/09/20 08:31:07;;;;;;;4.15;2.10;;;;;;;12.89;82.41;98809.41;5092309;28;20480;-70
2022/09/20 08:33:36;;;;;;;5.17;2.10;;;;;;;13.03;83.13;98805.84;5094298;28;20231;-73
2022/09/20 08:36:04;;;;;;;4.70;2.00;;;;;;;13.10;81.58;98804.47;5094153;28;20245;-73
2022/09/20 08:38:31;;;;;;;3.90;1.90;;;;;;;13.20;77.64;98803.72;5092532;28;20223;-72
2022/09/20 08:41:03;;;;;;;11.70;2.13;;;;;;;13.26;77.22;98805.13;5092787;28;20599;-72
2022/09/20 08:43:34;;;;;;;5.93;1.77;;;;;;;13.26;77.39;98799.81;5094173;28;20261;-72
2022/09/20 08:46:04;;;;;;;5.30;2.10;;;;;;;13.34;78.67;98806.28;5093969;28;20338;-73
2022/09/20 08:48:33;;;;;;;5.47;1.67;;;;;;;13.57;72.58;98799.38;5093640;28;20256;-72
2022/09/20 08:51:02;;;;;;;4.50;1.53;;;;;;;13.56;73.29;98797.69;5093754;28;20316;-71
2022/09/20 09:07:21;;;;;;;3.87;1.30;;;;;;;14.36;63.65;98792.69;5097117;27;1308490;-69
2022/09/20 09:09:50;;;;;;;6.10;1.53;;;;;;;14.23;65.26;98791.91;5116359;28;20218;-71
2022/09/20 09:12:22;;;;;;;4.77;1.40;;;;;;;14.23;65.66;98789.22;5133469;28;20228;-72
2022/09/20 09:14:53;;;;;;;3.13;1.70;;;;;;;14.14;68.62;98800.50;5133374;28;20316;-67
2022/09/20 09:17:22;;;;;;;5.53;1.70;;;;;;;14.01;67.50;98795.22;5132409;28;20275;-70
2022/09/20 09:19:50;;;;;;;3.87;1.67;;;;;;;14.00;67.83;98792.69;5133506;28;20229;-70
2022/09/20 09:22:34;;;;;;;3.13;1.50;;;;;;;13.93;68.03;98802.06;5131794;28;20261;-69
2022/09/20 09:25:23;;;;;;;5.80;1.50;;;;;;;13.84;67.11;98792.94;5133312;28;20252;-71
2022/09/20 09:27:52;;;;;;;4.97;1.80;;;;;;;13.91;67.86;98788.00;5117786;28;20231;-70
2022/09/20 09:30:21;;;;;;;3.73;1.70;;;;;;;13.92;66.69;98795.88;5133107;28;20703;-70
2022/09/20 09:32:48;;;;;;;3.97;1.30;;;;;;;13.95;66.12;98789.50;5133315;28;20634;-71
2022/09/20 09:35:35;;;;;;;2.83;1.43;;;;;;;13.96;67.39;98786.75;5133214;28;20308;-70
2022/09/20 09:38:03;;;;;;;4.00;1.53;;;;;;;13.99;64.38;98786.50;5133179;28;20229;-70
2022/09/20 09:40:32;;;;;;;3.17;1.40;;;;;;;13.84;65.75;98789.41;5132933;28;20720;-66
2022/09/20 09:43:01;;;;;;;4.77;1.10;;;;;;;13.64;66.90;98795.31;5133110;28;20706;-66
2022/09/20 09:45:31;;;;;;;4.43;1.43;;;;;;;13.50;66.31;98792.78;5118332;28;20248;-67
2022/09/20 09:48:16;;;;;;;3.17;1.33;;;;;;;13.42;68.67;98790.66;5131087;28;20222;-68
2022/09/20 09:50:43;;;;;;;4.70;1.37;;;;;;;13.23;68.58;98790.25;5132863;28;20709;-67
2022/09/20 09:53:14;;;;;;;3.07;1.33;;;;;;;13.07;70.23;98796.75;5131052;28;20520;-67
2022/09/20 09:56:10;;;;;;;5.47;1.50;;;;;;;13.00;69.67;98787.47;5132779;28;20224;-68
2022/09/20 09:58:53;;;;;;;2.83;1.43;;;;;;;13.17;71.11;98787.16;5132509;28;20227;-68
2022/09/20 10:01:30;;;;;;;7.47;1.60;;;;;;;13.77;66.43;98781.06;5118987;28;20239;-68
2022/09/20 10:04:05;;;;;;;4.47;1.60;;;;;;;14.25;61.28;98776.66;5132552;28;20311;-72
2022/09/20 10:06:40;;;;;;;4.07;1.40;;;;;;;14.71;60.86;98775.78;5128001;28;20284;-72
2022/09/20 10:09:23;;;;;;;2.57;1.03;;;;;;;15.14;58.19;98773.31;5104357;28;20218;-72
2022/09/20 10:12:02;;;;;;;3.33;1.20;;;;;;;15.37;55.81;98775.94;5118774;28;20271;-67
2022/09/20 10:14:42;;;;;;;3.73;1.30;;;;;;;14.98;57.26;98778.97;5117930;28;20286;-68
2022/09/20 10:17:22;;;;;;;3.87;1.60;;;;;;;14.64;59.23;98784.31;5118524;28;20258;-72
2022/09/20 10:20:04;;;;;;;3.47;1.60;;;;;;;14.34;60.63;98786.59;5115236;28;20261;-73
2022/09/20 10:22:39;;;;;;;5.20;1.53;;;;;;;14.26;61.97;98789.00;5117880;28;20222;-74
2022/09/20 10:25:21;;;;;;;3.80;1.10;;;;;;;14.27;62.98;98783.56;5117696;28;20259;-74
2022/09/20 10:28:03;;;;;;;3.57;1.30;;;;;;;14.25;62.50;98776.66;5116214;28;20230;-73
2022/09/20 10:30:44;;;;;;;4.10;1.57;;;;;;;14.15;63.04;98770.28;5108495;28;20279;-73
2022/09/20 10:33:22;;;;;;;3.97;1.53;;;;;;;13.97;65.45;98774.28;5099651;28;20231;-73
2022/09/20 10:36:05;;;;;;;4.63;1.47;;;;;;;13.86;66.91;98779.50;5099422;28;20584;-74
2022/09/20 10:38:38;;;;;;;5.70;1.70;;;;;;;13.82;67.62;98772.75;5113354;28;20342;-73
2022/09/20 10:44:12;;;;;;;2.60;1.03;;;;;;;14.17;64.06;98771.88;5098274;28;20221;-71
2022/09/20 10:46:55;;;;;;;3.57;1.30;;;;;;;14.83;58.65;98763.34;5097169;28;20274;-72
2022/09/20 10:49:28;;;;;;;3.23;1.20;;;;;;;15.40;56.39;98762.38;5097413;28;20230;-72
2022/09/20 10:52:10;;;;;;;4.43;1.30;;;;;;;15.68;57.74;98774.34;5100059;28;20271;-73
2022/09/20 10:54:50;;;;;;;4.23;1.57;;;;;;;15.55;58.05;98768.31;5109781;28;20613;-73
2022/09/20 10:57:39;;;;;;;2.67;1.70;;;;;;;15.35;60.09;98766.38;5097500;28;20765;-72
2022/09/20 11:00:19;;;;;;;2.70;1.30;;;;;;;15.22;61.68;98765.59;5112410;28;20229;-72
2022/09/20 11:03:02;;;;;;;3.63;1.40;;;;;;;15.00;60.32;98776.22;5098712;28;20627;-71
2022/09/20 11:05:36;;;;;;;2.70;1.40;;;;;;;14.90;62.79;98776.06;5099433;28;20331;-73
2022/09/20 11:08:09;;;;;;;4.07;1.47;;;;;;;14.98;61.44;98778.16;5098313;28;20507;-72
2022/09/20 11:10:41;;;;;;;2.53;1.40;;;;;;;14.99;59.05;98779.84;5096957;28;20258;-73
2022/09/20 11:13:20;;;;;;;4.43;1.63;;;;;;;15.15;59.01;98775.03;5098320;28;20518;-72
2022/09/20 11:15:52;;;;;;;4.23;1.33;;;;;;;15.57;60.43;98767.22;5112854;28;20222;-71
2022/09/20 11:18:25;;;;;;;4.73;1.60;;;;;;;16.12;57.48;98774.31;5097271;28;20420;-72
2022/09/20 11:21:00;;;;;;;3.90;1.30;;;;;;;16.55;58.02;98771.53;5097138;28;20264;-71
2022/09/20 11:23:39;;;;;;;3.43;1.40;;;;;;;16.55;52.88;98766.19;5100346;28;20227;-67
2022/09/20 11:26:11;;;;;;;3.80;1.23;;;;;;;16.58;55.74;98771.25;5098040;28;20770;-67
2022/09/20 11:28:45;;;;;;;2.30;1.60;;;;;;;16.59;54.18;98764.13;5097408;28;20259;-67
2022/09/20 11:31:17;;;;;;;5.23;1.57;;;;;;;16.75;53.26;98768.03;5112245;28;20256;-67
2022/09/20 11:33:48;;;;;;;3.60;1.43;;;;;;;17.09;53.07;98764.22;5099337;28;20433;-67
2022/09/20 11:36:21;;;;;;;4.57;1.10;;;;;;;16.99;50.96;98768.63;5098025;28;20221;-67
2022/09/20 11:38:51;;;;;;;2.77;1.30;;;;;;;16.87;50.45;98774.16;5108411;28;20230;-67
2022/09/20 11:41:24;;;;;;;3.90;1.67;;;;;;;16.85;51.51;98763.63;5109538;28;20286;-67
2022/09/20 11:43:53;;;;;;;3.07;1.27;;;;;;;16.83;52.62;98760.22;5099390;28;20264;-68
2022/09/20 11:46:25;;;;;;;3.10;1.20;;;;;;;16.70;52.47;98764.06;5099477;28;20329;-68
2022/09/20 11:48:59;;;;;;;3.37;1.30;;;;;;;16.58;52.31;98763.25;5101638;28;20268;-67
2022/09/20 11:51:52;;;;;;;2.37;1.30;;;;;;;16.43;53.55;98763.69;5100160;28;20230;-67
2022/09/20 11:54:44;;;;;;;4.03;1.30;;;;;;;16.46;51.50;98764.28;5099185;28;20272;-70
2022/09/20 11:57:14;;;;;;;2.67;1.03;;;;;;;16.34;52.51;98754.59;5106007;28;20561;-68
2022/09/20 11:59:50;;;;;;;2.90;1.23;;;;;;;16.14;55.06;98755.38;5099039;28;20414;-68
2022/09/20 12:02:22;;;;;;;4.40;1.33;;;;;;;15.80;57.37;98752.91;5099599;28;20232;-68
2022/09/20 12:04:52;;;;;;;3.70;1.43;;;;;;;15.41;57.61;98752.56;5098954;28;20232;-68
2022/09/20 12:07:23;;;;;;;4.53;1.30;;;;;;;15.20;56.32;98754.22;5098864;28;20245;-68
2022/09/20 12:09:56;;;;;;;2.70;1.27;;;;;;;15.18;56.62;98751.69;5098788;28;20265;-68
2022/09/20 12:12:43;;;;;;;4.63;1.40;;;;;;;15.32;54.00;98745.25;5102560;28;20224;-68
2022/09/20 12:15:25;;;;;;;1.60;1.00;;;;;;;15.38;54.62;98742.16;5100400;28;20260;-68
2022/09/20 12:18:07;;;;;;;2.33;1.27;;;;;;;15.49;56.36;98743.00;5099932;28;20602;-68
2022/09/20 12:21:14;;;;;;;5.10;1.50;;;;;;;15.57;56.74;98747.75;5101536;28;20307;-69
2022/09/20 12:24:17;;;;;;;3.37;1.63;;;;;;;15.72;54.22;98743.84;5099821;28;20294;-68
2022/09/20 12:26:46;;;;;;;2.33;1.13;;;;;;;15.87;54.68;98738.13;5100297;28;20324;-69
2022/09/20 12:29:53;;;;;;;5.10;1.50;;;;;;;16.11;54.23;98741.47;5099613;28;20255;-68
2022/09/20 12:33:00;;;;;;;4.23;1.87;;;;;;;16.32;53.49;98745.88;5101642;28;20235;-68
2022/09/20 12:36:13;;;;;;;3.17;1.53;;;;;;;16.68;54.56;98734.84;5096640;28;20226;-68
2022/09/20 12:38:55;;;;;;;2.77;1.40;;;;;;;16.95;50.53;98728.97;5099566;28;20616;-68
2022/09/20 12:41:22;;;;;;;2.70;1.33;;;;;;;16.93;48.89;98728.25;5099789;28;20260;-68
2022/09/20 12:44:02;;;;;;;4.23;2.13;;;;;;;16.97;49.44;98738.56;5101708;28;20232;-68